createdAt,value
2018-11-29T00:00:41.008Z,100.00
2018-11-29T00:03:10.875Z,100.00
2018-11-29T00:05:40.240Z,100.00
2018-11-29T00:08:09.019Z,100.00
2018-11-29T00:10:39.063Z,100.00
2018-11-29T00:13:08.451Z,100.00
2018-11-29T00:15:37.661Z,100.00
2018-11-29T00:18:07.035Z,100.00
2018-11-29T00:20:36.307Z,100.00
2018-11-29T00:23:05.077Z,100.00
2018-11-29T00:25:34.419Z,100.00
2018-11-29T00:28:03.980Z,100.00
2018-11-29T00:30:33.494Z,100.00
2018-11-29T00:33:03.175Z,100.00
2018-11-29T00:35:33.099Z,100.00
2018-11-29T00:38:01.911Z,100.00
2018-11-29T00:40:31.407Z,100.00
2018-11-29T00:43:01.687Z,100.00
2018-11-29T00:45:31.820Z,100.00
2018-11-29T00:48:01.433Z,100.00
2018-11-29T00:50:30.312Z,100.00
2018-11-29T00:52:59.283Z,100.00
2018-11-29T00:55:28.287Z,100.00
2018-11-29T00:57:57.832Z,100.00
2018-11-29T01:00:26.781Z,100.00
2018-11-29T01:02:56.905Z,100.00
2018-11-29T01:05:25.858Z,100.00
2018-11-29T01:07:55.540Z,100.00
2018-11-29T01:10:25.495Z,100.00
2018-11-29T01:12:54.465Z,100.00
2018-11-29T01:15:24.583Z,100.00
2018-11-29T01:17:54.508Z,100.00
2018-11-29T01:20:23.891Z,100.00
2018-11-29T01:22:54.131Z,100.00
2018-11-29T01:25:23.051Z,100.00
2018-11-29T01:27:52.063Z,100.00
2018-11-29T01:30:21.588Z,100.00
2018-11-29T01:32:51.168Z,100.00
2018-11-29T01:35:20.903Z,100.00
2018-11-29T01:37:50.115Z,100.00
2018-11-29T01:40:20.852Z,100.00
2018-11-29T01:42:57.319Z,100.00
2018-11-29T01:45:27.115Z,100.00
2018-11-29T01:47:56.172Z,100.00
2018-11-29T01:50:26.176Z,100.00
2018-11-29T01:52:55.907Z,100.00
2018-11-29T01:55:25.524Z,100.00
2018-11-29T01:57:55.187Z,100.00
2018-11-29T02:00:25.456Z,100.00
2018-11-29T02:02:55.594Z,100.00
2018-11-29T02:05:23.479Z,100.00
2018-11-29T02:07:53.063Z,100.00
2018-11-29T02:10:27.837Z,100.00
2018-11-29T02:12:57.504Z,100.00
2018-11-29T02:15:27.029Z,100.00
2018-11-29T02:17:57.055Z,100.00
2018-11-29T02:20:26.140Z,100.00
2018-11-29T02:22:56.200Z,100.00
2018-11-29T02:25:25.915Z,100.00
2018-11-29T02:27:55.355Z,100.00
2018-11-29T02:30:25.160Z,100.00
2018-11-29T02:32:55.288Z,100.00
2018-11-29T02:35:24.759Z,100.00
2018-11-29T02:37:54.395Z,100.00
2018-11-29T02:40:24.520Z,100.00
2018-11-29T02:42:54.165Z,100.00
2018-11-29T02:45:24.932Z,100.00
2018-11-29T02:47:54.834Z,100.00
2018-11-29T02:50:24.481Z,100.00
2018-11-29T02:52:54.847Z,100.00
2018-11-29T02:55:24.426Z,100.00
2018-11-29T02:57:54.567Z,100.00
2018-11-29T03:00:24.067Z,100.00
2018-11-29T03:02:53.044Z,100.00
2018-11-29T03:05:22.393Z,100.00
2018-11-29T03:07:51.831Z,100.00
2018-11-29T03:10:26.604Z,100.00
2018-11-29T03:12:55.678Z,100.00
2018-11-29T03:15:25.168Z,100.00
2018-11-29T03:17:54.080Z,100.00
2018-11-29T03:20:23.887Z,100.00
2018-11-29T03:22:53.520Z,100.00
2018-11-29T03:25:22.580Z,100.00
2018-11-29T03:27:52.691Z,100.00
2018-11-29T03:30:22.206Z,100.00
2018-11-29T03:32:51.807Z,100.00
2018-11-29T03:35:21.377Z,100.00
2018-11-29T03:37:50.768Z,100.00
2018-11-29T03:40:20.721Z,100.00
2018-11-29T03:42:49.567Z,100.00
2018-11-29T03:45:18.555Z,100.00
2018-11-29T03:47:48.143Z,100.00
2018-11-29T03:50:18.577Z,100.00
2018-11-29T03:52:48.521Z,100.00
2018-11-29T03:55:18.313Z,100.00
2018-11-29T03:57:47.380Z,100.00
2018-11-29T04:00:17.108Z,100.00
2018-11-29T04:02:47.113Z,100.00
2018-11-29T04:05:17.024Z,100.00
2018-11-29T04:07:46.012Z,100.00
2018-11-29T04:10:17.927Z,100.00
2018-11-29T04:12:47.319Z,100.00
2018-11-29T04:15:17.688Z,100.00
2018-11-29T04:17:47.084Z,100.00
2018-11-29T04:20:20.366Z,100.00
2018-11-29T04:22:49.356Z,100.00
2018-11-29T04:25:19.031Z,100.00
2018-11-29T04:27:48.019Z,100.00
2018-11-29T04:30:18.134Z,100.00
2018-11-29T04:32:47.714Z,100.00
2018-11-29T04:35:17.497Z,100.00
2018-11-29T04:37:47.195Z,100.00
2018-11-29T04:40:17.651Z,100.00
2018-11-29T04:42:47.469Z,100.00
2018-11-29T04:45:18.593Z,100.00
2018-11-29T04:47:47.835Z,100.00
2018-11-29T04:50:17.563Z,100.00
2018-11-29T04:52:47.260Z,100.00
2018-11-29T04:55:17.194Z,100.00
2018-11-29T04:57:46.816Z,100.00
2018-11-29T05:00:17.096Z,100.00
2018-11-29T05:02:46.665Z,100.00
2018-11-29T05:05:16.620Z,100.00
2018-11-29T05:07:45.746Z,100.00
2018-11-29T05:10:18.969Z,100.00
2018-11-29T05:12:48.204Z,100.00
2018-11-29T05:15:19.091Z,100.00
2018-11-29T05:17:48.267Z,100.00
2018-11-29T05:20:17.608Z,100.00
2018-11-29T05:22:46.520Z,100.00
2018-11-29T05:25:17.200Z,100.00
2018-11-29T05:27:45.384Z,100.00
2018-11-29T05:30:15.708Z,100.00
2018-11-29T05:32:45.187Z,100.00
2018-11-29T05:35:15.374Z,100.00
2018-11-29T05:37:45.545Z,100.00
2018-11-29T05:40:14.988Z,100.00
2018-11-29T05:42:44.200Z,100.00
2018-11-29T05:45:13.264Z,100.00
2018-11-29T05:47:43.820Z,100.00
2018-11-29T05:50:13.101Z,100.00
2018-11-29T05:52:42.859Z,100.00
2018-11-29T05:55:13.556Z,100.00
2018-11-29T05:57:42.580Z,100.00
2018-11-29T06:00:14.451Z,100.00
2018-11-29T06:02:44.424Z,100.00
2018-11-29T06:05:14.735Z,100.00
2018-11-29T06:07:44.705Z,100.00
2018-11-29T06:10:13.733Z,100.00
2018-11-29T06:12:44.163Z,100.00
2018-11-29T06:15:13.848Z,100.00
2018-11-29T06:17:43.245Z,100.00
2018-11-29T06:20:14.125Z,100.00
2018-11-29T06:22:43.125Z,100.00
2018-11-29T06:25:12.128Z,100.00
2018-11-29T06:27:41.057Z,100.00
2018-11-29T06:30:24.552Z,100.00
2018-11-29T06:32:54.579Z,100.00
2018-11-29T06:35:24.283Z,100.00
2018-11-29T06:37:54.807Z,100.00
2018-11-29T06:40:24.395Z,100.00
2018-11-29T06:42:53.940Z,100.00
2018-11-29T06:45:23.683Z,100.00
2018-11-29T06:47:53.191Z,100.00
2018-11-29T06:50:22.883Z,100.00
2018-11-29T06:52:52.368Z,100.00
2018-11-29T06:55:23.023Z,100.00
2018-11-29T06:57:52.360Z,100.00
2018-11-29T07:00:26.320Z,100.00
2018-11-29T07:02:55.696Z,100.00
2018-11-29T07:05:26.153Z,100.00
2018-11-29T07:07:55.236Z,100.00
2018-11-29T07:10:29.819Z,100.00
2018-11-29T07:13:00.259Z,100.00
2018-11-29T07:15:29.771Z,100.00
2018-11-29T07:17:58.716Z,100.00
2018-11-29T07:20:27.973Z,100.00
2018-11-29T07:22:57.527Z,100.00
2018-11-29T07:25:26.467Z,100.00
2018-11-29T07:27:55.439Z,100.00
2018-11-29T07:30:24.532Z,100.00
2018-11-29T07:32:54.227Z,100.00
2018-11-29T07:35:23.519Z,100.00
2018-11-29T07:37:52.506Z,100.00
2018-11-29T07:40:22.288Z,100.00
2018-11-29T07:42:55.416Z,100.00
2018-11-29T07:45:25.103Z,100.00
2018-11-29T07:47:54.775Z,100.00
2018-11-29T07:50:24.725Z,100.00
2018-11-29T07:52:54.261Z,100.00
2018-11-29T07:55:24.664Z,100.00
2018-11-29T07:57:54.150Z,100.00
2018-11-29T08:00:23.812Z,100.00
2018-11-29T08:02:54.092Z,100.00
2018-11-29T08:05:23.931Z,100.00
2018-11-29T08:07:52.879Z,100.00
2018-11-29T08:10:22.487Z,100.00
2018-11-29T08:12:52.652Z,100.00
2018-11-29T08:15:23.052Z,100.00
2018-11-29T08:17:53.791Z,100.00
2018-11-29T08:20:23.471Z,100.00
2018-11-29T08:22:52.427Z,100.00
2018-11-29T08:25:21.459Z,100.00
2018-11-29T08:27:51.408Z,100.00
2018-11-29T08:30:21.697Z,100.00
2018-11-29T08:32:50.665Z,100.00
2018-11-29T08:35:19.637Z,100.00
2018-11-29T08:37:49.644Z,100.00
2018-11-29T08:40:20.703Z,100.00
2018-11-29T08:42:49.847Z,100.00
2018-11-29T08:45:20.263Z,100.00
2018-11-29T08:47:49.324Z,100.00
2018-11-29T08:50:18.891Z,100.00
2018-11-29T08:52:47.916Z,100.00
2018-11-29T08:55:18.650Z,100.00
2018-11-29T08:57:48.199Z,100.00
2018-11-29T09:00:18.903Z,100.00
2018-11-29T09:02:48.946Z,100.00
2018-11-29T09:05:18.924Z,100.00
2018-11-29T09:07:48.732Z,100.00
2018-11-29T09:10:19.691Z,100.00
2018-11-29T09:12:49.468Z,100.00
2018-11-29T09:15:19.387Z,100.00
2018-11-29T09:17:48.753Z,100.00
2018-11-29T09:20:18.716Z,99.55
2018-11-29T09:22:48.650Z,99.39
2018-11-29T09:25:20.193Z,99.32
2018-11-29T09:27:49.083Z,98.54
2018-11-29T09:30:19.970Z,97.80
2018-11-29T09:32:49.736Z,97.64
2018-11-29T09:35:19.427Z,97.54
2018-11-29T09:37:48.360Z,98.61
2018-11-29T09:40:18.125Z,97.93
2018-11-29T09:42:47.938Z,98.28
2018-11-29T09:45:20.191Z,98.19
2018-11-29T09:47:50.143Z,97.93
2018-11-29T09:50:19.187Z,98.23
2018-11-29T09:52:48.740Z,97.39
2018-11-29T09:55:18.134Z,98.16
2018-11-29T09:57:47.783Z,98.78
2018-11-29T10:00:31.445Z,99.08
2018-11-29T10:03:07.667Z,98.77
2018-11-29T10:05:36.675Z,99.32
2018-11-29T10:08:11.840Z,98.70
2018-11-29T10:10:37.352Z,98.61
2018-11-29T10:13:07.088Z,98.36
2018-11-29T10:15:36.011Z,98.19
2018-11-29T10:18:05.717Z,99.00
2018-11-29T10:20:34.931Z,98.39
2018-11-29T10:23:04.427Z,99.59
2018-11-29T10:25:34.157Z,99.14
2018-11-29T10:28:08.292Z,99.43
2018-11-29T10:30:48.009Z,98.73
2018-11-29T10:33:16.895Z,99.25
2018-11-29T10:35:45.863Z,99.10
2018-11-29T10:38:15.229Z,99.30
2018-11-29T10:40:44.603Z,98.36
2018-11-29T10:43:14.424Z,97.46
2018-11-29T10:45:44.935Z,97.59
2018-11-29T10:48:17.331Z,97.64
2018-11-29T10:50:46.391Z,97.22
2018-11-29T10:53:16.511Z,96.92
2018-11-29T10:55:46.492Z,96.75
2018-11-29T10:58:15.434Z,96.01
2018-11-29T11:00:49.528Z,95.68
2018-11-29T11:03:20.060Z,96.43
2018-11-29T11:05:51.012Z,96.15
2018-11-29T11:08:20.445Z,96.46
2018-11-29T11:10:49.903Z,95.67
2018-11-29T11:13:19.468Z,96.52
2018-11-29T11:15:48.907Z,97.48
2018-11-29T11:18:18.748Z,96.85
2018-11-29T11:20:49.088Z,96.78
2018-11-29T11:23:18.408Z,97.40
2018-11-29T11:25:47.897Z,97.27
2018-11-29T11:28:17.363Z,97.48
2018-11-29T11:30:47.301Z,98.21
2018-11-29T11:33:16.913Z,97.41
2018-11-29T11:35:45.859Z,97.50
2018-11-29T11:38:15.374Z,98.33
2018-11-29T11:40:44.476Z,97.53
2018-11-29T11:43:14.015Z,97.83
2018-11-29T11:45:43.838Z,97.30
2018-11-29T11:48:12.706Z,96.82
2018-11-29T11:50:43.042Z,97.78
2018-11-29T11:53:11.958Z,97.80
2018-11-29T11:55:41.256Z,97.77
2018-11-29T11:58:10.469Z,98.25
2018-11-29T12:00:39.807Z,98.34
2018-11-29T12:03:11.887Z,97.94
2018-11-29T12:05:41.480Z,97.83
2018-11-29T12:08:11.707Z,98.37
2018-11-29T12:10:41.769Z,98.29
2018-11-29T12:13:10.708Z,97.82
2018-11-29T12:15:39.680Z,98.08
2018-11-29T12:18:09.919Z,99.21
2018-11-29T12:20:38.876Z,98.77
2018-11-29T12:23:08.275Z,98.88
2018-11-29T12:25:39.035Z,97.79
2018-11-29T12:28:07.908Z,97.49
2018-11-29T12:30:40.552Z,98.46
2018-11-29T12:33:10.643Z,97.46
2018-11-29T12:35:40.177Z,97.24
2018-11-29T12:38:08.997Z,97.45
2018-11-29T12:40:38.590Z,96.73
2018-11-29T12:43:07.620Z,97.09
2018-11-29T12:45:36.788Z,95.72
2018-11-29T12:48:06.337Z,95.50
2018-11-29T12:50:38.695Z,94.82
2018-11-29T12:53:08.134Z,94.47
2018-11-29T12:55:40.487Z,93.38
2018-11-29T12:58:10.015Z,93.05
2018-11-29T13:00:39.040Z,93.66
2018-11-29T13:03:08.617Z,93.32
2018-11-29T13:05:38.200Z,92.84
2018-11-29T13:08:08.369Z,93.07
2018-11-29T13:10:37.239Z,92.05
2018-11-29T13:13:07.068Z,93.32
2018-11-29T13:15:36.195Z,93.88
2018-11-29T13:18:07.800Z,94.13
2018-11-29T13:20:36.901Z,95.17
2018-11-29T13:23:07.391Z,96.67
2018-11-29T13:25:37.372Z,96.26
2018-11-29T13:28:06.654Z,96.06
2018-11-29T13:30:37.228Z,97.16
2018-11-29T13:33:07.548Z,97.90
2018-11-29T13:35:37.195Z,98.36
2018-11-29T13:38:09.142Z,99.59
2018-11-29T13:40:39.564Z,100.00
2018-11-29T13:43:09.165Z,100.00
2018-11-29T13:45:39.129Z,100.00
2018-11-29T13:48:09.668Z,100.00
2018-11-29T13:50:39.211Z,100.00
2018-11-29T13:53:09.966Z,97.82
2018-11-29T13:55:39.093Z,97.03
2018-11-29T13:58:08.360Z,95.34
2018-11-29T14:00:37.283Z,95.13
2018-11-29T14:03:09.863Z,95.55
2018-11-29T14:05:39.564Z,94.75
2018-11-29T14:08:09.739Z,95.35
2018-11-29T14:10:41.235Z,95.84
2018-11-29T14:13:11.052Z,95.99
2018-11-29T14:15:41.549Z,96.74
2018-11-29T14:18:11.238Z,97.02
2018-11-29T14:20:42.289Z,97.86
2018-11-29T14:23:11.903Z,96.96
2018-11-29T14:25:41.462Z,96.40
2018-11-29T14:28:10.839Z,96.14
2018-11-29T14:30:40.396Z,96.83
2018-11-29T14:33:09.269Z,97.46
2018-11-29T14:35:38.265Z,97.05
2018-11-29T14:38:08.013Z,96.36
2018-11-29T14:40:38.473Z,96.44
2018-11-29T14:43:07.880Z,96.67
2018-11-29T14:45:37.549Z,96.94
2018-11-29T14:48:07.070Z,97.12
2018-11-29T14:50:38.173Z,97.55
2018-11-29T14:53:08.974Z,97.61
2018-11-29T14:55:38.921Z,96.52
2018-11-29T14:58:10.193Z,96.66
2018-11-29T15:00:40.420Z,96.86
2018-11-29T15:03:15.883Z,97.11
2018-11-29T15:05:45.821Z,98.04
2018-11-29T15:08:15.913Z,97.74
2018-11-29T15:10:45.448Z,97.76
2018-11-29T15:13:15.104Z,97.53
2018-11-29T15:15:44.627Z,97.84
2018-11-29T15:18:14.480Z,97.26
2018-11-29T15:20:47.511Z,97.29
2018-11-29T15:23:18.259Z,96.93
2018-11-29T15:25:48.172Z,96.82
2018-11-29T15:28:17.792Z,97.17
2018-11-29T15:30:47.135Z,97.72
2018-11-29T15:33:16.961Z,98.14
2018-11-29T15:35:46.345Z,97.34
2018-11-29T15:38:17.531Z,97.07
2018-11-29T15:40:47.569Z,97.34
2018-11-29T15:43:17.064Z,97.90
2018-11-29T15:45:46.067Z,97.92
2018-11-29T15:48:15.089Z,97.11
2018-11-29T15:50:44.932Z,96.68
2018-11-29T15:53:14.468Z,96.61
2018-11-29T15:55:43.596Z,96.26
2018-11-29T15:58:12.735Z,97.00
2018-11-29T16:00:43.164Z,95.45
2018-11-29T16:03:12.629Z,95.19
2018-11-29T16:05:42.838Z,96.58
2018-11-29T16:08:12.130Z,96.81
2018-11-29T16:10:41.453Z,97.57
2018-11-29T16:13:10.959Z,98.27
2018-11-29T16:15:40.643Z,98.55
2018-11-29T16:18:09.650Z,98.13
2018-11-29T16:20:39.645Z,98.42
2018-11-29T16:23:10.040Z,97.96
2018-11-29T16:25:39.263Z,98.00
2018-11-29T16:28:09.240Z,98.08
2018-11-29T16:30:40.895Z,98.48
2018-11-29T16:33:11.492Z,98.60
2018-11-29T16:35:40.494Z,98.38
2018-11-29T16:38:09.464Z,97.23
2018-11-29T16:40:39.000Z,97.82
2018-11-29T16:43:08.356Z,98.05
2018-11-29T16:45:37.272Z,97.66
2018-11-29T16:48:06.669Z,97.93
2018-11-29T16:50:37.423Z,98.00
2018-11-29T16:53:07.125Z,98.25
2018-11-29T16:55:36.100Z,98.39
2018-11-29T16:58:10.824Z,98.61
2018-11-29T17:00:40.006Z,97.84
2018-11-29T17:03:09.643Z,98.04
2018-11-29T17:05:39.671Z,97.96
2018-11-29T17:08:09.806Z,98.03
2018-11-29T17:10:40.195Z,97.74
2018-11-29T17:13:12.563Z,97.57
2018-11-29T17:15:43.342Z,97.95
2018-11-29T17:18:12.741Z,98.34
2018-11-29T17:20:42.287Z,98.56
2018-11-29T17:23:12.921Z,98.92
2018-11-29T17:25:41.758Z,98.87
2018-11-29T17:28:12.811Z,99.12
2018-11-29T17:30:41.619Z,99.11
2018-11-29T17:33:11.896Z,99.15
2018-11-29T17:35:41.860Z,99.06
2018-11-29T17:38:11.803Z,98.40
2018-11-29T17:40:40.751Z,98.86
2018-11-29T17:43:09.696Z,98.05
2018-11-29T17:45:39.005Z,98.53
2018-11-29T17:48:10.059Z,98.79
2018-11-29T17:50:43.023Z,98.70
2018-11-29T17:53:11.843Z,98.57
2018-11-29T17:55:40.799Z,98.44
2018-11-29T17:58:11.279Z,97.43
2018-11-29T18:00:40.135Z,96.80
2018-11-29T18:03:10.132Z,95.40
2018-11-29T18:05:39.707Z,95.01
2018-11-29T18:08:09.716Z,96.94
2018-11-29T18:10:40.848Z,97.58
2018-11-29T18:13:15.736Z,99.02
2018-11-29T18:15:44.644Z,99.13
2018-11-29T18:18:14.655Z,99.68
2018-11-29T18:20:43.007Z,99.31
2018-11-29T18:23:12.836Z,99.78
2018-11-29T18:25:44.092Z,100.00
2018-11-29T18:28:13.111Z,100.00
2018-11-29T18:30:41.941Z,100.00
2018-11-29T18:33:12.385Z,100.00
2018-11-29T18:35:42.537Z,100.00
2018-11-29T18:38:12.202Z,100.00
2018-11-29T18:40:42.168Z,100.00
2018-11-29T18:43:11.815Z,100.00
2018-11-29T18:45:40.899Z,100.00
2018-11-29T18:48:11.415Z,100.00
2018-11-29T18:50:40.519Z,100.00
2018-11-29T18:53:10.536Z,100.00
2018-11-29T18:55:41.286Z,100.00
2018-11-29T18:58:11.208Z,100.00
2018-11-29T19:00:40.361Z,100.00
2018-11-29T19:03:09.810Z,100.00
2018-11-29T19:05:39.705Z,100.00
2018-11-29T19:08:10.384Z,100.00
2018-11-29T19:10:39.794Z,100.00
2018-11-29T19:13:12.950Z,100.00
2018-11-29T19:15:41.982Z,100.00
2018-11-29T19:18:11.207Z,100.00
2018-11-29T19:20:40.259Z,100.00
2018-11-29T19:23:11.066Z,100.00
2018-11-29T19:25:40.018Z,100.00
2018-11-29T19:28:09.513Z,100.00
2018-11-29T19:30:38.790Z,100.00
2018-11-29T19:33:17.126Z,100.00
2018-11-29T19:35:42.024Z,100.00
2018-11-29T19:38:12.024Z,100.00
2018-11-29T19:40:43.493Z,100.00
2018-11-29T19:43:13.121Z,100.00
2018-11-29T19:45:42.227Z,100.00
2018-11-29T19:48:12.220Z,100.00
2018-11-29T19:50:42.239Z,100.00
2018-11-29T19:53:20.231Z,100.00
2018-11-29T19:55:49.967Z,100.00
2018-11-29T19:58:20.857Z,100.00
2018-11-29T20:00:50.114Z,100.00
2018-11-29T20:03:20.468Z,100.00
2018-11-29T20:05:50.587Z,100.00
2018-11-29T20:08:20.777Z,100.00
2018-11-29T20:10:49.906Z,100.00
2018-11-29T20:13:18.883Z,100.00
2018-11-29T20:15:49.332Z,100.00
2018-11-29T20:18:18.275Z,100.00
2018-11-29T20:20:47.768Z,100.00
2018-11-29T20:23:16.723Z,100.00
2018-11-29T20:25:46.448Z,100.00
2018-11-29T20:28:16.180Z,100.00
2018-11-29T20:30:46.326Z,100.00
2018-11-29T20:33:15.278Z,100.00
2018-11-29T20:35:45.980Z,100.00
2018-11-29T20:38:15.310Z,100.00
2018-11-29T20:40:45.448Z,100.00
2018-11-29T20:43:14.946Z,100.00
2018-11-29T20:45:53.380Z,100.00
2018-11-29T20:48:24.285Z,100.00
2018-11-29T20:50:53.965Z,100.00
2018-11-29T20:53:30.271Z,100.00
2018-11-29T20:56:01.151Z,100.00
2018-11-29T20:58:31.474Z,100.00
2018-11-29T21:01:01.057Z,100.00
2018-11-29T21:03:30.071Z,100.00
2018-11-29T21:06:00.224Z,100.00
2018-11-29T21:08:31.108Z,100.00
2018-11-29T21:11:00.063Z,100.00
2018-11-29T21:13:29.821Z,100.00
2018-11-29T21:15:59.532Z,100.00
2018-11-29T21:18:28.483Z,100.00
2018-11-29T21:20:59.223Z,100.00
2018-11-29T21:23:28.680Z,100.00
2018-11-29T21:25:57.783Z,100.00
2018-11-29T21:28:28.000Z,100.00
2018-11-29T21:30:56.899Z,100.00
2018-11-29T21:33:27.056Z,100.00
2018-11-29T21:35:56.384Z,100.00
2018-11-29T21:38:25.811Z,100.00
2018-11-29T21:40:59.707Z,100.00
2018-11-29T21:43:29.643Z,100.00
2018-11-29T21:45:59.443Z,100.00
2018-11-29T21:48:28.488Z,100.00
2018-11-29T21:50:57.347Z,100.00
2018-11-29T21:53:26.714Z,100.00
2018-11-29T21:55:55.603Z,100.00
2018-11-29T21:58:24.495Z,100.00
2018-11-29T22:00:55.142Z,100.00
2018-11-29T22:03:25.339Z,100.00
2018-11-29T22:05:54.322Z,100.00
2018-11-29T22:08:23.962Z,100.00
2018-11-29T22:10:52.904Z,100.00
2018-11-29T22:13:22.277Z,100.00
2018-11-29T22:15:51.824Z,100.00
2018-11-29T22:18:23.753Z,100.00
2018-11-29T22:21:03.524Z,100.00
2018-11-29T22:23:34.148Z,100.00
2018-11-29T22:26:04.516Z,100.00
2018-11-29T22:28:33.555Z,100.00
2018-11-29T22:31:04.031Z,100.00
2018-11-29T22:33:34.586Z,100.00
2018-11-29T22:36:05.237Z,100.00
2018-11-29T22:38:34.235Z,100.00
2018-11-29T22:41:04.459Z,100.00
2018-11-29T22:43:33.287Z,100.00
2018-11-29T22:46:02.625Z,100.00
2018-11-29T22:48:32.548Z,100.00
2018-11-29T22:51:02.359Z,100.00
2018-11-29T22:53:32.420Z,100.00
2018-11-29T22:56:01.474Z,100.00
2018-11-29T22:58:31.923Z,100.00
2018-11-29T23:01:01.007Z,100.00
2018-11-29T23:03:30.138Z,100.00
2018-11-29T23:05:59.622Z,100.00
2018-11-29T23:08:29.159Z,100.00
2018-11-29T23:10:58.011Z,100.00
2018-11-29T23:13:28.276Z,100.00
2018-11-29T23:15:57.576Z,100.00
2018-11-29T23:18:26.547Z,100.00
2018-11-29T23:20:56.700Z,100.00
2018-11-29T23:23:26.003Z,100.00
2018-11-29T23:25:55.819Z,100.00
2018-11-29T23:28:25.793Z,100.00
2018-11-29T23:30:54.712Z,100.00
2018-11-29T23:33:23.672Z,100.00
2018-11-29T23:35:53.092Z,100.00
2018-11-29T23:38:22.011Z,100.00
2018-11-29T23:40:52.268Z,100.00
2018-11-29T23:43:21.247Z,100.00
2018-11-29T23:45:50.872Z,100.00
2018-11-29T23:48:21.248Z,100.00
2018-11-29T23:50:50.585Z,100.00
2018-11-29T23:53:20.037Z,100.00
2018-11-29T23:55:49.409Z,100.00
2018-11-29T23:58:20.214Z,100.00
